イヌヴィック の空港の天気 - METARとTAF

イヌヴィック空港 ( CYEV / YEV ) - カナダ ノースウエスト準州イヌヴィック
飛行場実況気象(Metar)
観測時間06/17 13:00 MDT (06/17 19:00 UTC)
風向・風速北 4m/s 瞬間風速8m/s
視程10km以上
天気現象
全天の4割程度の雲 雲底高度 550m
全天の8割程度の雲 雲底高度 2440m
全天の8割程度の雲 雲底高度 7620m
気温9℃
湿度62%
気圧1015.1hPa
METARCYEV 171900Z 35007G15KT 330V040 15SM SCT018 BKN080 BKN250 09/02 A2996 RMK SC4AC2CI1 SLP151
過去の天気等 Google飛行場航空写真 Wunderground天気予報

過去48時間のMETAR

飛行場予報(TAF)
発表時間: 6/17 13:25 MDT (6/17 19:25 UTC)
予報対象時間: 17日13時 MDT ~ 18日1時 MDT
風向・風速北 5m/s
視程10km以上
少しの雲 雲底高度 240m
全天を覆う雲 雲底高度 460m
17日13時 MDT ~ 17日15時 MDT に一時的に
全天の4割程度の雲 雲底高度 460m
全天の8割程度の雲 雲底高度 2440m
17日15時 MDT から
風向・風速北北東 5m/s
視程10km以上
少しの雲 雲底高度 460m
全天の4割程度の雲 雲底高度 2440m
TAF AMD CYEV 171925Z 1719/1807 01010KT P6SM FEW008 OVC015
TEMPO 1719/1721 SCT015 BKN080
FM172100 03010KT P6SM FEW015 SCT080 RMK NXT FCST BY 180100Z